sensor_id;sensor_type;location;lat;lon;timestamp;temperature;humidity
7654;DHT22;3869;48.406;10.774;2023-04-03T00:00:49;3.30;99.90
7654;DHT22;3869;48.406;10.774;2023-04-03T00:03:17;3.30;99.90
7654;DHT22;3869;48.406;10.774;2023-04-03T00:05:45;3.20;99.90
7654;DHT22;3869;48.406;10.774;2023-04-03T00:08:13;3.30;99.90
7654;DHT22;3869;48.406;10.774;2023-04-03T00:10:41;3.30;99.90
7654;DHT22;3869;48.406;10.774;2023-04-03T00:13:10;3.30;99.90
7654;DHT22;3869;48.406;10.774;2023-04-03T00:15:38;3.30;99.90
7654;DHT22;3869;48.406;10.774;2023-04-03T00:18:08;3.20;99.90
7654;DHT22;3869;48.406;10.774;2023-04-03T00:20:36;3.20;99.90
7654;DHT22;3869;48.406;10.774;2023-04-03T00:23:05;3.10;99.90
7654;DHT22;3869;48.406;10.774;2023-04-03T00:25:33;3.10;99.90
7654;DHT22;3869;48.406;10.774;2023-04-03T00:28:02;3.20;99.90
7654;DHT22;3869;48.406;10.774;2023-04-03T00:30:30;3.20;99.90
7654;DHT22;3869;48.406;10.774;2023-04-03T00:32:59;3.20;99.90
7654;DHT22;3869;48.406;10.774;2023-04-03T00:35:29;3.10;99.90
7654;DHT22;3869;48.406;10.774;2023-04-03T00:37:57;3.10;99.90
7654;DHT22;3869;48.406;10.774;2023-04-03T00:40:25;3.10;99.90
7654;DHT22;3869;48.406;10.774;2023-04-03T00:42:56;3.10;99.90
7654;DHT22;3869;48.406;10.774;2023-04-03T00:45:34;3.00;99.90
7654;DHT22;3869;48.406;10.774;2023-04-03T00:48:05;3.00;99.90
7654;DHT22;3869;48.406;10.774;2023-04-03T00:50:37;3.00;99.90
7654;DHT22;3869;48.406;10.774;2023-04-03T00:53:08;3.00;99.90
7654;DHT22;3869;48.406;10.774;2023-04-03T00:55:38;3.00;99.90
7654;DHT22;3869;48.406;10.774;2023-04-03T00:58:06;3.00;99.90
7654;DHT22;3869;48.406;10.774;2023-04-03T01:00:37;3.00;99.90
7654;DHT22;3869;48.406;10.774;2023-04-03T01:03:06;3.00;99.90
7654;DHT22;3869;48.406;10.774;2023-04-03T01:05:35;3.00;99.90
7654;DHT22;3869;48.406;10.774;2023-04-03T01:08:04;3.10;99.90
7654;DHT22;3869;48.406;10.774;2023-04-03T01:10:32;3.10;99.90
7654;DHT22;3869;48.406;10.774;2023-04-03T01:13:01;3.10;99.90
7654;DHT22;3869;48.406;10.774;2023-04-03T01:15:29;3.10;99.90
7654;DHT22;3869;48.406;10.774;2023-04-03T01:18:01;3.20;99.90
7654;DHT22;3869;48.406;10.774;2023-04-03T01:23:34;3.20;99.90
7654;DHT22;3869;48.406;10.774;2023-04-03T01:26:04;3.20;99.90
7654;DHT22;3869;48.406;10.774;2023-04-03T01:28:34;3.10;99.90
7654;DHT22;3869;48.406;10.774;2023-04-03T01:31:08;3.10;99.90
7654;DHT22;3869;48.406;10.774;2023-04-03T01:33:39;3.20;99.90
7654;DHT22;3869;48.406;10.774;2023-04-03T01:36:08;3.10;99.90
7654;DHT22;3869;48.406;10.774;2023-04-03T01:38:36;3.00;99.90
7654;DHT22;3869;48.406;10.774;2023-04-03T01:41:04;3.00;99.90
7654;DHT22;3869;48.406;10.774;2023-04-03T01:43:32;3.00;99.90
7654;DHT22;3869;48.406;10.774;2023-04-03T01:46:00;3.10;99.90
7654;DHT22;3869;48.406;10.774;2023-04-03T01:48:28;3.00;99.90
7654;DHT22;3869;48.406;10.774;2023-04-03T01:50:57;3.00;99.90
7654;DHT22;3869;48.406;10.774;2023-04-03T01:53:25;3.00;99.90
7654;DHT22;3869;48.406;10.774;2023-04-03T01:55:53;3.00;99.90
7654;DHT22;3869;48.406;10.774;2023-04-03T01:58:21;3.00;99.90
7654;DHT22;3869;48.406;10.774;2023-04-03T02:00:50;3.00;99.90
7654;DHT22;3869;48.406;10.774;2023-04-03T02:03:18;3.00;99.90
7654;DHT22;3869;48.406;10.774;2023-04-03T02:05:46;3.00;99.90
7654;DHT22;3869;48.406;10.774;2023-04-03T02:08:16;3.00;99.90
7654;DHT22;3869;48.406;10.774;2023-04-03T02:10:46;3.00;99.90
7654;DHT22;3869;48.406;10.774;2023-04-03T02:13:14;3.00;99.90
7654;DHT22;3869;48.406;10.774;2023-04-03T02:15:42;3.00;99.90
7654;DHT22;3869;48.406;10.774;2023-04-03T02:18:10;3.10;99.90
7654;DHT22;3869;48.406;10.774;2023-04-03T02:20:38;3.10;99.90
7654;DHT22;3869;48.406;10.774;2023-04-03T02:23:07;3.20;99.90
7654;DHT22;3869;48.406;10.774;2023-04-03T02:25:36;3.10;99.90
7654;DHT22;3869;48.406;10.774;2023-04-03T02:28:05;3.10;99.90
7654;DHT22;3869;48.406;10.774;2023-04-03T02:30:33;3.20;99.90
7654;DHT22;3869;48.406;10.774;2023-04-03T02:33:02;3.20;99.90
7654;DHT22;3869;48.406;10.774;2023-04-03T02:35:30;3.20;99.90
7654;DHT22;3869;48.406;10.774;2023-04-03T02:37:58;3.20;99.90
7654;DHT22;3869;48.406;10.774;2023-04-03T02:40:26;3.20;99.90
7654;DHT22;3869;48.406;10.774;2023-04-03T02:42:56;3.20;99.90
7654;DHT22;3869;48.406;10.774;2023-04-03T02:45:24;3.30;99.90
7654;DHT22;3869;48.406;10.774;2023-04-03T02:47:51;3.30;99.90
7654;DHT22;3869;48.406;10.774;2023-04-03T02:50:19;3.20;99.90
7654;DHT22;3869;48.406;10.774;2023-04-03T02:52:47;3.20;99.90
7654;DHT22;3869;48.406;10.774;2023-04-03T02:55:16;3.10;99.90
7654;DHT22;3869;48.406;10.774;2023-04-03T02:57:44;3.00;99.90
7654;DHT22;3869;48.406;10.774;2023-04-03T03:00:14;3.00;99.90
7654;DHT22;3869;48.406;10.774;2023-04-03T03:02:42;3.10;99.90
7654;DHT22;3869;48.406;10.774;2023-04-03T03:05:10;3.00;99.90
7654;DHT22;3869;48.406;10.774;2023-04-03T03:07:38;2.90;99.90
7654;DHT22;3869;48.406;10.774;2023-04-03T03:10:06;2.90;99.90
7654;DHT22;3869;48.406;10.774;2023-04-03T03:12:34;2.90;99.90
7654;DHT22;3869;48.406;10.774;2023-04-03T03:15:03;2.90;99.90
7654;DHT22;3869;48.406;10.774;2023-04-03T03:17:32;2.90;99.90
7654;DHT22;3869;48.406;10.774;2023-04-03T03:20:00;2.90;99.90
7654;DHT22;3869;48.406;10.774;2023-04-03T03:22:28;2.80;99.90
7654;DHT22;3869;48.406;10.774;2023-04-03T03:24:58;2.80;99.90
7654;DHT22;3869;48.406;10.774;2023-04-03T03:27:27;2.70;99.90
7654;DHT22;3869;48.406;10.774;2023-04-03T03:29:55;2.80;99.90
7654;DHT22;3869;48.406;10.774;2023-04-03T03:32:23;2.80;99.90
7654;DHT22;3869;48.406;10.774;2023-04-03T03:34:52;2.80;99.90
7654;DHT22;3869;48.406;10.774;2023-04-03T03:37:21;2.80;99.90
7654;DHT22;3869;48.406;10.774;2023-04-03T03:39:48;2.80;99.90
7654;DHT22;3869;48.406;10.774;2023-04-03T03:42:16;2.90;99.90
7654;DHT22;3869;48.406;10.774;2023-04-03T03:44:44;2.90;99.90
7654;DHT22;3869;48.406;10.774;2023-04-03T03:47:12;2.80;99.90
7654;DHT22;3869;48.406;10.774;2023-04-03T03:49:40;2.80;99.90
7654;DHT22;3869;48.406;10.774;2023-04-03T03:52:10;2.80;99.90
7654;DHT22;3869;48.406;10.774;2023-04-03T03:54:38;2.80;99.90
7654;DHT22;3869;48.406;10.774;2023-04-03T03:57:06;2.80;99.90
7654;DHT22;3869;48.406;10.774;2023-04-03T03:59:34;2.90;99.90
7654;DHT22;3869;48.406;10.774;2023-04-03T04:02:02;2.90;99.90
7654;DHT22;3869;48.406;10.774;2023-04-03T04:04:30;2.90;99.90
7654;DHT22;3869;48.406;10.774;2023-04-03T04:06:58;2.90;99.90
7654;DHT22;3869;48.406;10.774;2023-04-03T04:09:28;2.90;99.90
7654;DHT22;3869;48.406;10.774;2023-04-03T04:11:56;2.90;99.90
7654;DHT22;3869;48.406;10.774;2023-04-03T04:14:24;2.90;99.90
7654;DHT22;3869;48.406;10.774;2023-04-03T04:16:53;2.90;99.90
7654;DHT22;3869;48.406;10.774;2023-04-03T04:19:21;2.90;99.90
7654;DHT22;3869;48.406;10.774;2023-04-03T04:21:49;2.90;99.90
7654;DHT22;3869;48.406;10.774;2023-04-03T04:24:17;2.80;99.90
7654;DHT22;3869;48.406;10.774;2023-04-03T04:26:46;2.90;99.90
7654;DHT22;3869;48.406;10.774;2023-04-03T04:29:14;2.80;99.90
7654;DHT22;3869;48.406;10.774;2023-04-03T04:31:42;2.90;99.90
7654;DHT22;3869;48.406;10.774;2023-04-03T04:34:10;2.80;99.90
7654;DHT22;3869;48.406;10.774;2023-04-03T04:36:39;2.80;99.90
7654;DHT22;3869;48.406;10.774;2023-04-03T04:39:08;2.80;99.90
7654;DHT22;3869;48.406;10.774;2023-04-03T04:41:35;2.70;99.90
7654;DHT22;3869;48.406;10.774;2023-04-03T04:44:05;2.70;99.90
7654;DHT22;3869;48.406;10.774;2023-04-03T04:46:33;2.70;99.90
7654;DHT22;3869;48.406;10.774;2023-04-03T04:49:01;2.60;99.90
7654;DHT22;3869;48.406;10.774;2023-04-03T04:51:29;2.60;99.90
7654;DHT22;3869;48.406;10.774;2023-04-03T04:54:14;2.60;99.90
7654;DHT22;3869;48.406;10.774;2023-04-03T04:56:42;2.60;99.90
7654;DHT22;3869;48.406;10.774;2023-04-03T04:59:11;2.60;99.90
7654;DHT22;3869;48.406;10.774;2023-04-03T05:01:39;2.60;99.90
7654;DHT22;3869;48.406;10.774;2023-04-03T05:04:08;2.60;99.90
7654;DHT22;3869;48.406;10.774;2023-04-03T05:06:36;2.60;99.90
7654;DHT22;3869;48.406;10.774;2023-04-03T05:09:04;2.60;99.90
7654;DHT22;3869;48.406;10.774;2023-04-03T05:11:32;2.70;99.90
7654;DHT22;3869;48.406;10.774;2023-04-03T05:14:00;2.70;99.90
7654;DHT22;3869;48.406;10.774;2023-04-03T05:16:29;2.70;99.90
7654;DHT22;3869;48.406;10.774;2023-04-03T05:18:57;2.70;99.90
7654;DHT22;3869;48.406;10.774;2023-04-03T05:21:25;2.70;99.90
7654;DHT22;3869;48.406;10.774;2023-04-03T05:23:55;2.70;99.90
7654;DHT22;3869;48.406;10.774;2023-04-03T05:26:23;2.70;99.90
7654;DHT22;3869;48.406;10.774;2023-04-03T05:28:52;2.70;99.90
7654;DHT22;3869;48.406;10.774;2023-04-03T05:31:20;2.70;99.90
7654;DHT22;3869;48.406;10.774;2023-04-03T05:33:49;2.70;99.90
7654;DHT22;3869;48.406;10.774;2023-04-03T05:36:18;2.70;99.90
7654;DHT22;3869;48.406;10.774;2023-04-03T05:38:46;2.70;99.90
7654;DHT22;3869;48.406;10.774;2023-04-03T05:41:14;2.70;99.90
7654;DHT22;3869;48.406;10.774;2023-04-03T05:43:43;2.70;99.90
7654;DHT22;3869;48.406;10.774;2023-04-03T05:46:11;2.70;99.90
7654;DHT22;3869;48.406;10.774;2023-04-03T05:48:39;2.60;99.90
7654;DHT22;3869;48.406;10.774;2023-04-03T05:51:14;2.60;99.90
7654;DHT22;3869;48.406;10.774;2023-04-03T05:53:43;2.70;99.90
7654;DHT22;3869;48.406;10.774;2023-04-03T05:56:12;2.70;99.90
7654;DHT22;3869;48.406;10.774;2023-04-03T05:58:40;2.60;99.90
7654;DHT22;3869;48.406;10.774;2023-04-03T06:01:08;2.70;99.90
7654;DHT22;3869;48.406;10.774;2023-04-03T06:03:36;2.70;99.90
7654;DHT22;3869;48.406;10.774;2023-04-03T06:06:06;2.70;99.90
7654;DHT22;3869;48.406;10.774;2023-04-03T06:08:36;2.70;99.90
7654;DHT22;3869;48.406;10.774;2023-04-03T06:11:05;2.80;99.90
7654;DHT22;3869;48.406;10.774;2023-04-03T06:13:35;2.80;99.90
7654;DHT22;3869;48.406;10.774;2023-04-03T06:16:04;2.80;99.90
7654;DHT22;3869;48.406;10.774;2023-04-03T06:18:32;2.80;99.90
7654;DHT22;3869;48.406;10.774;2023-04-03T06:21:00;2.80;99.90
7654;DHT22;3869;48.406;10.774;2023-04-03T06:23:29;2.80;99.90
7654;DHT22;3869;48.406;10.774;2023-04-03T06:25:58;2.80;99.90
7654;DHT22;3869;48.406;10.774;2023-04-03T06:28:27;2.90;99.90
7654;DHT22;3869;48.406;10.774;2023-04-03T06:30:54;2.90;99.90
7654;DHT22;3869;48.406;10.774;2023-04-03T06:33:22;2.90;99.90
7654;DHT22;3869;48.406;10.774;2023-04-03T06:35:56;2.90;99.90
7654;DHT22;3869;48.406;10.774;2023-04-03T06:38:24;2.80;99.90
7654;DHT22;3869;48.406;10.774;2023-04-03T06:40:52;2.90;99.90
7654;DHT22;3869;48.406;10.774;2023-04-03T06:43:22;2.90;99.90
7654;DHT22;3869;48.406;10.774;2023-04-03T06:45:51;2.90;99.90
7654;DHT22;3869;48.406;10.774;2023-04-03T06:48:19;2.90;99.90
7654;DHT22;3869;48.406;10.774;2023-04-03T06:50:47;3.00;99.90
7654;DHT22;3869;48.406;10.774;2023-04-03T06:53:15;3.00;99.90
7654;DHT22;3869;48.406;10.774;2023-04-03T06:55:43;2.90;99.90
7654;DHT22;3869;48.406;10.774;2023-04-03T06:58:11;3.00;99.90
7654;DHT22;3869;48.406;10.774;2023-04-03T07:00:41;3.00;99.90
7654;DHT22;3869;48.406;10.774;2023-04-03T07:03:09;3.10;99.90
7654;DHT22;3869;48.406;10.774;2023-04-03T07:05:37;3.20;99.90
7654;DHT22;3869;48.406;10.774;2023-04-03T07:08:06;3.10;99.90
7654;DHT22;3869;48.406;10.774;2023-04-03T07:10:34;3.10;99.90
7654;DHT22;3869;48.406;10.774;2023-04-03T07:13:01;3.20;99.90
7654;DHT22;3869;48.406;10.774;2023-04-03T07:15:30;3.20;99.90
7654;DHT22;3869;48.406;10.774;2023-04-03T07:17:59;3.10;99.90
7654;DHT22;3869;48.406;10.774;2023-04-03T07:20:27;3.10;99.90
7654;DHT22;3869;48.406;10.774;2023-04-03T07:22:55;3.10;99.90
7654;DHT22;3869;48.406;10.774;2023-04-03T07:25:23;3.30;99.90
7654;DHT22;3869;48.406;10.774;2023-04-03T07:27:51;3.40;99.90
7654;DHT22;3869;48.406;10.774;2023-04-03T07:30:21;3.40;99.90
7654;DHT22;3869;48.406;10.774;2023-04-03T07:32:49;3.40;99.90
7654;DHT22;3869;48.406;10.774;2023-04-03T07:35:18;3.30;99.90
7654;DHT22;3869;48.406;10.774;2023-04-03T07:37:46;3.30;99.90
7654;DHT22;3869;48.406;10.774;2023-04-03T07:40:14;3.40;99.90
7654;DHT22;3869;48.406;10.774;2023-04-03T07:42:44;3.50;99.90
7654;DHT22;3869;48.406;10.774;2023-04-03T07:45:12;3.50;99.90
7654;DHT22;3869;48.406;10.774;2023-04-03T07:47:39;3.40;99.90
7654;DHT22;3869;48.406;10.774;2023-04-03T07:50:08;3.50;99.90
7654;DHT22;3869;48.406;10.774;2023-04-03T07:52:37;3.60;99.90
7654;DHT22;3869;48.406;10.774;2023-04-03T07:55:06;3.60;99.90
7654;DHT22;3869;48.406;10.774;2023-04-03T07:57:34;3.60;99.90
7654;DHT22;3869;48.406;10.774;2023-04-03T08:00:03;3.60;99.90
7654;DHT22;3869;48.406;10.774;2023-04-03T08:02:31;3.70;99.90
7654;DHT22;3869;48.406;10.774;2023-04-03T08:04:59;3.70;99.90
7654;DHT22;3869;48.406;10.774;2023-04-03T08:07:27;3.70;99.90
7654;DHT22;3869;48.406;10.774;2023-04-03T08:09:56;3.80;99.90
7654;DHT22;3869;48.406;10.774;2023-04-03T08:12:24;4.00;99.90
7654;DHT22;3869;48.406;10.774;2023-04-03T08:14:55;3.90;99.90
7654;DHT22;3869;48.406;10.774;2023-04-03T08:17:23;3.90;99.90
7654;DHT22;3869;48.406;10.774;2023-04-03T08:19:51;3.80;99.90
7654;DHT22;3869;48.406;10.774;2023-04-03T08:22:19;3.90;99.90
7654;DHT22;3869;48.406;10.774;2023-04-03T08:24:47;3.90;99.90
7654;DHT22;3869;48.406;10.774;2023-04-03T08:27:26;3.80;99.90
7654;DHT22;3869;48.406;10.774;2023-04-03T08:29:54;3.90;99.90
7654;DHT22;3869;48.406;10.774;2023-04-03T08:32:22;4.00;99.90
7654;DHT22;3869;48.406;10.774;2023-04-03T08:34:50;4.10;99.90
7654;DHT22;3869;48.406;10.774;2023-04-03T08:37:18;4.20;99.90
7654;DHT22;3869;48.406;10.774;2023-04-03T08:39:47;4.20;99.90
7654;DHT22;3869;48.406;10.774;2023-04-03T08:42:19;4.20;99.90
7654;DHT22;3869;48.406;10.774;2023-04-03T08:44:59;4.30;99.90
7654;DHT22;3869;48.406;10.774;2023-04-03T08:47:37;4.40;99.90
7654;DHT22;3869;48.406;10.774;2023-04-03T08:50:11;4.40;99.90
7654;DHT22;3869;48.406;10.774;2023-04-03T08:52:42;4.50;99.90
7654;DHT22;3869;48.406;10.774;2023-04-03T08:55:20;4.50;99.90
7654;DHT22;3869;48.406;10.774;2023-04-03T08:57:51;4.50;99.90
7654;DHT22;3869;48.406;10.774;2023-04-03T09:00:25;4.50;99.90
7654;DHT22;3869;48.406;10.774;2023-04-03T09:02:55;4.60;99.90
7654;DHT22;3869;48.406;10.774;2023-04-03T09:05:39;4.40;99.90
7654;DHT22;3869;48.406;10.774;2023-04-03T09:08:17;4.40;99.90
7654;DHT22;3869;48.406;10.774;2023-04-03T09:10:49;4.50;99.90
7654;DHT22;3869;48.406;10.774;2023-04-03T09:13:26;4.40;99.90
7654;DHT22;3869;48.406;10.774;2023-04-03T09:15:57;4.30;99.90
7654;DHT22;3869;48.406;10.774;2023-04-03T09:18:31;4.30;99.90
7654;DHT22;3869;48.406;10.774;2023-04-03T09:21:07;4.30;99.90
7654;DHT22;3869;48.406;10.774;2023-04-03T09:23:41;4.30;99.90
7654;DHT22;3869;48.406;10.774;2023-04-03T09:26:15;4.30;99.90
7654;DHT22;3869;48.406;10.774;2023-04-03T09:28:46;4.40;99.90
7654;DHT22;3869;48.406;10.774;2023-04-03T09:31:21;4.60;99.90
7654;DHT22;3869;48.406;10.774;2023-04-03T09:33:52;4.70;99.90
7654;DHT22;3869;48.406;10.774;2023-04-03T09:36:41;4.70;99.90
7654;DHT22;3869;48.406;10.774;2023-04-03T09:39:12;4.50;99.90
7654;DHT22;3869;48.406;10.774;2023-04-03T09:41:41;4.40;99.90
7654;DHT22;3869;48.406;10.774;2023-04-03T09:44:23;4.30;99.90
7654;DHT22;3869;48.406;10.774;2023-04-03T09:46:52;4.30;99.90
7654;DHT22;3869;48.406;10.774;2023-04-03T09:49:20;4.40;99.90
7654;DHT22;3869;48.406;10.774;2023-04-03T09:51:48;4.40;99.90
7654;DHT22;3869;48.406;10.774;2023-04-03T09:54:40;4.30;99.90
7654;DHT22;3869;48.406;10.774;2023-04-03T09:57:10;4.20;99.90
7654;DHT22;3869;48.406;10.774;2023-04-03T09:59:44;4.20;99.90
7654;DHT22;3869;48.406;10.774;2023-04-03T10:02:28;4.30;99.90
7654;DHT22;3869;48.406;10.774;2023-04-03T10:04:58;4.50;99.90
7654;DHT22;3869;48.406;10.774;2023-04-03T10:07:37;4.40;99.90
7654;DHT22;3869;48.406;10.774;2023-04-03T10:10:18;4.30;99.90
7654;DHT22;3869;48.406;10.774;2023-04-03T10:12:52;4.50;99.90
7654;DHT22;3869;48.406;10.774;2023-04-03T10:15:35;4.50;99.90
7654;DHT22;3869;48.406;10.774;2023-04-03T10:18:08;4.70;99.90
7654;DHT22;3869;48.406;10.774;2023-04-03T10:20:51;4.80;99.90
7654;DHT22;3869;48.406;10.774;2023-04-03T10:23:26;5.00;99.90
7654;DHT22;3869;48.406;10.774;2023-04-03T10:26:04;5.10;99.90
7654;DHT22;3869;48.406;10.774;2023-04-03T10:28:46;5.20;99.90
7654;DHT22;3869;48.406;10.774;2023-04-03T10:31:18;5.10;99.90
7654;DHT22;3869;48.406;10.774;2023-04-03T10:33:59;5.00;99.90
7654;DHT22;3869;48.406;10.774;2023-04-03T10:36:38;5.00;99.90
7654;DHT22;3869;48.406;10.774;2023-04-03T10:39:18;5.00;99.90
7654;DHT22;3869;48.406;10.774;2023-04-03T10:41:57;4.90;99.90
7654;DHT22;3869;48.406;10.774;2023-04-03T10:44:53;5.10;99.90
7654;DHT22;3869;48.406;10.774;2023-04-03T10:47:32;5.20;99.90
7654;DHT22;3869;48.406;10.774;2023-04-03T10:50:27;5.20;99.90
7654;DHT22;3869;48.406;10.774;2023-04-03T10:53:01;5.30;99.90
7654;DHT22;3869;48.406;10.774;2023-04-03T10:55:36;5.30;99.90
7654;DHT22;3869;48.406;10.774;2023-04-03T10:58:06;5.30;99.90
7654;DHT22;3869;48.406;10.774;2023-04-03T11:00:38;5.20;99.90
7654;DHT22;3869;48.406;10.774;2023-04-03T11:03:12;5.30;99.90
7654;DHT22;3869;48.406;10.774;2023-04-03T11:05:45;5.10;99.90
7654;DHT22;3869;48.406;10.774;2023-04-03T11:08:24;5.10;99.90
7654;DHT22;3869;48.406;10.774;2023-04-03T11:10:57;5.10;99.90
7654;DHT22;3869;48.406;10.774;2023-04-03T11:13:32;5.00;99.90
7654;DHT22;3869;48.406;10.774;2023-04-03T11:16:02;4.90;99.90
7654;DHT22;3869;48.406;10.774;2023-04-03T11:18:37;5.00;99.90
7654;DHT22;3869;48.406;10.774;2023-04-03T11:21:14;4.90;99.90
7654;DHT22;3869;48.406;10.774;2023-04-03T11:23:44;4.90;99.90
7654;DHT22;3869;48.406;10.774;2023-04-03T11:26:17;5.00;99.90
7654;DHT22;3869;48.406;10.774;2023-04-03T11:28:52;5.10;99.90
7654;DHT22;3869;48.406;10.774;2023-04-03T11:31:29;5.00;99.90
7654;DHT22;3869;48.406;10.774;2023-04-03T11:34:11;4.90;99.90
7654;DHT22;3869;48.406;10.774;2023-04-03T11:36:46;4.90;99.90
7654;DHT22;3869;48.406;10.774;2023-04-03T11:39:21;5.00;99.90
7654;DHT22;3869;48.406;10.774;2023-04-03T11:41:50;5.10;99.90
7654;DHT22;3869;48.406;10.774;2023-04-03T11:44:35;5.20;99.90
7654;DHT22;3869;48.406;10.774;2023-04-03T11:47:04;5.10;99.90
7654;DHT22;3869;48.406;10.774;2023-04-03T11:49:51;5.10;99.90
7654;DHT22;3869;48.406;10.774;2023-04-03T11:52:59;5.30;99.90
7654;DHT22;3869;48.406;10.774;2023-04-03T11:55:52;5.30;99.90
7654;DHT22;3869;48.406;10.774;2023-04-03T11:58:22;5.30;99.90
7654;DHT22;3869;48.406;10.774;2023-04-03T12:00:55;5.20;99.90
7654;DHT22;3869;48.406;10.774;2023-04-03T12:06:41;5.40;99.90
7654;DHT22;3869;48.406;10.774;2023-04-03T12:09:27;5.50;99.90
7654;DHT22;3869;48.406;10.774;2023-04-03T12:11:57;5.70;99.90
7654;DHT22;3869;48.406;10.774;2023-04-03T12:14:26;5.60;99.90
7654;DHT22;3869;48.406;10.774;2023-04-03T12:16:55;5.70;99.90
7654;DHT22;3869;48.406;10.774;2023-04-03T12:19:34;5.70;99.90
7654;DHT22;3869;48.406;10.774;2023-04-03T12:22:12;5.70;99.90
7654;DHT22;3869;48.406;10.774;2023-04-03T12:24:43;5.90;99.90
7654;DHT22;3869;48.406;10.774;2023-04-03T12:27:22;6.20;99.90
7654;DHT22;3869;48.406;10.774;2023-04-03T12:29:56;6.20;99.30
7654;DHT22;3869;48.406;10.774;2023-04-03T12:32:46;6.00;99.10
7654;DHT22;3869;48.406;10.774;2023-04-03T12:35:28;6.10;99.30
7654;DHT22;3869;48.406;10.774;2023-04-03T12:41:16;6.20;99.70
7654;DHT22;3869;48.406;10.774;2023-04-03T12:46:37;6.20;99.90
7654;DHT22;3869;48.406;10.774;2023-04-03T12:49:20;6.20;99.90
7654;DHT22;3869;48.406;10.774;2023-04-03T12:51:51;6.20;99.90
7654;DHT22;3869;48.406;10.774;2023-04-03T12:54:23;6.10;99.50
7654;DHT22;3869;48.406;10.774;2023-04-03T12:59:47;6.10;99.70
7654;DHT22;3869;48.406;10.774;2023-04-03T13:02:22;6.30;99.90
7654;DHT22;3869;48.406;10.774;2023-04-03T13:04:52;6.50;99.70
7654;DHT22;3869;48.406;10.774;2023-04-03T13:07:22;6.60;99.30
7654;DHT22;3869;48.406;10.774;2023-04-03T13:09:59;6.60;98.90
7654;DHT22;3869;48.406;10.774;2023-04-03T13:12:27;6.50;98.60
7654;DHT22;3869;48.406;10.774;2023-04-03T13:15:01;6.60;98.50
7654;DHT22;3869;48.406;10.774;2023-04-03T13:17:31;6.70;98.70
7654;DHT22;3869;48.406;10.774;2023-04-03T13:20:13;7.10;98.50
7654;DHT22;3869;48.406;10.774;2023-04-03T13:22:46;7.10;97.00
7654;DHT22;3869;48.406;10.774;2023-04-03T13:25:17;7.00;97.30
7654;DHT22;3869;48.406;10.774;2023-04-03T13:27:47;6.70;96.90
7654;DHT22;3869;48.406;10.774;2023-04-03T13:30:27;6.50;97.10
7654;DHT22;3869;48.406;10.774;2023-04-03T13:32:56;6.60;98.50
7654;DHT22;3869;48.406;10.774;2023-04-03T13:35:32;6.70;98.20
7654;DHT22;3869;48.406;10.774;2023-04-03T13:38:05;6.40;98.00
7654;DHT22;3869;48.406;10.774;2023-04-03T13:40:35;6.40;98.00
7654;DHT22;3869;48.406;10.774;2023-04-03T13:43:19;6.30;97.40
7654;DHT22;3869;48.406;10.774;2023-04-03T13:45:58;6.30;97.30
7654;DHT22;3869;48.406;10.774;2023-04-03T13:48:35;6.30;97.70
7654;DHT22;3869;48.406;10.774;2023-04-03T13:51:05;6.30;96.80
7654;DHT22;3869;48.406;10.774;2023-04-03T13:53:42;6.40;96.90
7654;DHT22;3869;48.406;10.774;2023-04-03T13:56:19;6.50;97.00
7654;DHT22;3869;48.406;10.774;2023-04-03T13:58:55;6.60;97.20
7654;DHT22;3869;48.406;10.774;2023-04-03T14:01:25;6.70;97.10
7654;DHT22;3869;48.406;10.774;2023-04-03T14:03:55;6.60;95.90
7654;DHT22;3869;48.406;10.774;2023-04-03T14:06:24;6.50;96.70
7654;DHT22;3869;48.406;10.774;2023-04-03T14:08:52;6.50;96.30
7654;DHT22;3869;48.406;10.774;2023-04-03T14:11:22;6.50;96.20
7654;DHT22;3869;48.406;10.774;2023-04-03T14:13:50;6.60;96.20
7654;DHT22;3869;48.406;10.774;2023-04-03T14:16:20;6.40;95.60
7654;DHT22;3869;48.406;10.774;2023-04-03T14:18:50;6.30;95.50
7654;DHT22;3869;48.406;10.774;2023-04-03T14:21:20;6.30;96.70
7654;DHT22;3869;48.406;10.774;2023-04-03T14:23:49;6.20;95.70
7654;DHT22;3869;48.406;10.774;2023-04-03T14:26:18;6.30;95.80
7654;DHT22;3869;48.406;10.774;2023-04-03T14:28:49;6.40;95.10
7654;DHT22;3869;48.406;10.774;2023-04-03T14:31:19;6.40;94.40
7654;DHT22;3869;48.406;10.774;2023-04-03T14:33:47;6.50;94.90
7654;DHT22;3869;48.406;10.774;2023-04-03T14:36:28;6.70;94.70
7654;DHT22;3869;48.406;10.774;2023-04-03T14:39:00;6.70;92.80
7654;DHT22;3869;48.406;10.774;2023-04-03T14:41:29;6.70;93.90
7654;DHT22;3869;48.406;10.774;2023-04-03T14:43:57;6.60;93.30
7654;DHT22;3869;48.406;10.774;2023-04-03T14:46:28;6.50;92.70
7654;DHT22;3869;48.406;10.774;2023-04-03T14:49:20;6.40;94.00
7654;DHT22;3869;48.406;10.774;2023-04-03T14:51:50;6.40;93.80
7654;DHT22;3869;48.406;10.774;2023-04-03T14:54:21;6.30;93.60
7654;DHT22;3869;48.406;10.774;2023-04-03T14:56:53;6.20;93.10
7654;DHT22;3869;48.406;10.774;2023-04-03T14:59:22;6.00;93.20
7654;DHT22;3869;48.406;10.774;2023-04-03T15:01:50;6.00;93.30
7654;DHT22;3869;48.406;10.774;2023-04-03T15:04:20;6.10;93.20
7654;DHT22;3869;48.406;10.774;2023-04-03T15:06:51;6.00;92.40
7654;DHT22;3869;48.406;10.774;2023-04-03T15:09:21;5.90;93.00
7654;DHT22;3869;48.406;10.774;2023-04-03T15:11:50;6.00;93.20
7654;DHT22;3869;48.406;10.774;2023-04-03T15:14:19;6.10;92.70
7654;DHT22;3869;48.406;10.774;2023-04-03T15:17:03;6.10;93.60
7654;DHT22;3869;48.406;10.774;2023-04-03T15:19:32;6.20;92.80
7654;DHT22;3869;48.406;10.774;2023-04-03T15:22:05;6.20;92.80
7654;DHT22;3869;48.406;10.774;2023-04-03T15:24:33;6.10;92.70
7654;DHT22;3869;48.406;10.774;2023-04-03T15:27:01;6.10;92.90
7654;DHT22;3869;48.406;10.774;2023-04-03T15:29:29;6.00;92.50
7654;DHT22;3869;48.406;10.774;2023-04-03T15:31:57;6.00;92.30
7654;DHT22;3869;48.406;10.774;2023-04-03T15:34:25;6.00;92.40
7654;DHT22;3869;48.406;10.774;2023-04-03T15:36:53;6.10;91.30
7654;DHT22;3869;48.406;10.774;2023-04-03T15:39:24;6.00;90.80
7654;DHT22;3869;48.406;10.774;2023-04-03T15:41:53;6.00;90.90
7654;DHT22;3869;48.406;10.774;2023-04-03T15:44:21;6.10;90.90
7654;DHT22;3869;48.406;10.774;2023-04-03T15:46:49;5.90;90.60
7654;DHT22;3869;48.406;10.774;2023-04-03T15:49:18;5.80;91.10
7654;DHT22;3869;48.406;10.774;2023-04-03T15:51:47;5.70;91.50
7654;DHT22;3869;48.406;10.774;2023-04-03T15:54:15;5.60;91.90
7654;DHT22;3869;48.406;10.774;2023-04-03T15:56:45;5.60;92.30
7654;DHT22;3869;48.406;10.774;2023-04-03T15:59:13;5.70;92.30
7654;DHT22;3869;48.406;10.774;2023-04-03T16:01:42;5.80;92.30
7654;DHT22;3869;48.406;10.774;2023-04-03T16:04:10;5.80;91.90
7654;DHT22;3869;48.406;10.774;2023-04-03T16:06:40;6.00;92.30
7654;DHT22;3869;48.406;10.774;2023-04-03T16:09:09;6.10;91.90
7654;DHT22;3869;48.406;10.774;2023-04-03T16:11:37;6.10;91.90
7654;DHT22;3869;48.406;10.774;2023-04-03T16:14:08;6.10;91.50
7654;DHT22;3869;48.406;10.774;2023-04-03T16:16:36;6.00;91.50
7654;DHT22;3869;48.406;10.774;2023-04-03T16:19:05;5.80;91.40
7654;DHT22;3869;48.406;10.774;2023-04-03T16:21:33;5.70;91.90
7654;DHT22;3869;48.406;10.774;2023-04-03T16:24:01;5.60;91.50
7654;DHT22;3869;48.406;10.774;2023-04-03T16:26:29;5.50;91.90
7654;DHT22;3869;48.406;10.774;2023-04-03T16:28:57;5.40;91.90
7654;DHT22;3869;48.406;10.774;2023-04-03T16:31:27;5.40;92.10
7654;DHT22;3869;48.406;10.774;2023-04-03T16:33:55;5.40;91.90
7654;DHT22;3869;48.406;10.774;2023-04-03T16:36:24;5.40;92.30
7654;DHT22;3869;48.406;10.774;2023-04-03T16:38:52;5.50;92.50
7654;DHT22;3869;48.406;10.774;2023-04-03T16:41:20;5.60;92.70